Time;durP1;ratioP1;P1;durP2;ratioP2;P2;SDS_P1;SDS_P2;PMS_P1;PMS_P2;Temp;Humidity;BMP_temperature;BMP_pressure;BME280_temperature;BME280_humidity;BME280_pressure;Samples;Min_cycle;Max_cycle;Signal;HPM_P1;HPM_P2
2022/08/28 00:02:15;;;;;;;13.10;10.90;;;;;;;18.38;62.37;99017.55;430978;1271;143213;-58
2022/08/28 00:12:21;;;;;;;14.10;10.80;;;;;;;18.25;62.90;99020.34;431459;1270;143114;-57
2022/08/28 00:22:27;;;;;;;14.60;11.40;;;;;;;18.15;63.58;99020.70;431649;1271;142252;-57
2022/08/28 00:32:34;;;;;;;13.10;10.30;;;;;;;18.04;64.12;99017.11;430508;1271;146638;-57
2022/08/28 00:42:40;;;;;;;13.50;10.10;;;;;;;17.94;64.85;99020.71;430850;1271;142865;-58
2022/08/28 00:52:47;;;;;;;11.80;10.10;;;;;;;17.87;65.45;99020.17;430388;1271;165528;-57
2022/08/28 01:02:53;;;;;;;14.30;11.40;;;;;;;17.75;66.03;99012.33;431220;1271;144022;-56
2022/08/28 01:13:00;;;;;;;13.70;10.80;;;;;;;17.67;66.73;99012.09;431392;1271;146964;-57
2022/08/28 01:23:15;;;;;;;14.10;10.40;;;;;;;17.58;67.26;99010.33;430615;1271;144145;-57
2022/08/28 01:33:22;;;;;;;13.80;11.40;;;;;;;17.52;67.88;99012.39;431570;1271;147735;-57
2022/08/28 01:43:32;;;;;;;10.30;8.90;;;;;;;17.45;68.28;99013.64;431747;1271;144053;-56
2022/08/28 01:53:40;;;;;;;10.20;9.20;;;;;;;17.43;68.81;99015.83;431352;1271;143737;-58
2022/08/28 02:03:46;;;;;;;9.60;8.60;;;;;;;17.40;69.10;99008.30;431080;1271;153352;-58
2022/08/28 02:13:53;;;;;;;11.00;8.90;;;;;;;17.36;69.55;99004.44;431046;1270;147311;-57
2022/08/28 02:24:00;;;;;;;9.90;8.50;;;;;;;17.31;69.85;99006.20;431439;1271;143114;-57
2022/08/28 02:34:06;;;;;;;11.50;8.90;;;;;;;17.28;70.24;99002.56;431218;1271;142922;-60
2022/08/28 02:44:12;;;;;;;10.20;8.30;;;;;;;17.17;70.16;99000.34;430648;1271;144471;-56
2022/08/28 02:54:18;;;;;;;9.80;7.80;;;;;;;17.07;70.68;98994.59;431278;1271;143555;-56
2022/08/28 03:04:23;;;;;;;9.50;8.50;;;;;;;17.03;70.86;99001.37;431132;1271;143371;-57
2022/08/28 03:14:29;;;;;;;11.20;7.40;;;;;;;17.00;71.08;99009.31;430206;1271;146023;-57
2022/08/28 03:24:36;;;;;;;9.50;7.50;;;;;;;16.98;71.45;99006.84;430661;1271;146122;-57
2022/08/28 03:34:42;;;;;;;9.10;8.10;;;;;;;17.03;71.73;99008.81;430959;1271;142934;-57
2022/08/28 03:44:48;;;;;;;10.10;7.80;;;;;;;17.16;72.02;99016.53;431701;1271;143626;-57
2022/08/28 03:54:54;;;;;;;11.10;7.40;;;;;;;17.25;72.10;99021.77;431137;1271;143020;-58
2022/08/28 04:05:00;;;;;;;10.20;8.00;;;;;;;17.45;72.40;99023.48;430595;1271;142969;-61
2022/08/28 04:15:08;;;;;;;13.00;7.60;;;;;;;17.82;72.40;99020.63;431277;1270;142696;-56
2022/08/28 04:25:14;;;;;;;9.40;5.80;;;;;;;18.32;71.54;99019.45;431549;1271;142750;-55
2022/08/28 04:35:20;;;;;;;10.40;6.50;;;;;;;18.89;71.21;99019.96;430395;1271;143141;-58
2022/08/28 04:45:25;;;;;;;7.50;6.00;;;;;;;19.48;70.01;99023.30;430696;1271;142649;-56
2022/08/28 04:55:31;;;;;;;9.60;6.10;;;;;;;20.01;69.20;99026.19;431199;1271;142465;-59
2022/08/28 05:05:57;;;;;;;7.80;5.50;;;;;;;20.54;68.18;99026.63;430987;1272;146058;-55
2022/08/28 05:16:04;;;;;;;6.80;5.30;;;;;;;21.05;67.27;99033.41;431161;1271;146287;-55
2022/08/28 05:26:14;;;;;;;6.90;5.60;;;;;;;21.61;66.08;99044.48;430313;1271;142477;-55
2022/08/28 05:36:22;;;;;;;8.80;5.70;;;;;;;22.18;65.03;99049.10;430892;1272;142862;-56
2022/08/28 05:46:31;;;;;;;5.50;5.00;;;;;;;22.86;64.00;99052.85;431304;1271;142826;-57
2022/08/28 05:56:39;;;;;;;5.80;5.00;;;;;;;23.51;62.51;99055.22;431086;1271;143865;-57
2022/08/28 06:06:48;;;;;;;5.80;5.30;;;;;;;24.56;60.58;99057.73;430903;1271;142361;-57
2022/08/28 06:16:56;;;;;;;9.00;5.60;;;;;;;25.26;58.80;99052.98;432248;1271;142554;-58
2022/08/28 06:27:02;;;;;;;10.10;6.60;;;;;;;25.77;57.24;99053.58;431944;1271;142260;-56
2022/08/28 06:37:09;;;;;;;6.50;5.80;;;;;;;26.81;56.06;99049.16;430877;1271;1369894;-57
2022/08/28 06:47:14;;;;;;;7.90;6.30;;;;;;;28.40;53.86;99061.88;430120;1271;141715;-57
2022/08/28 06:57:20;;;;;;;8.20;6.50;;;;;;;30.99;50.93;99060.70;430134;1271;142387;-56
2022/08/28 07:07:26;;;;;;;7.00;5.70;;;;;;;37.03;43.33;99046.90;434450;1271;141815;-56
2022/08/28 07:17:37;;;;;;;5.80;5.00;;;;;;;42.34;36.79;99046.17;434670;1271;142124;-57
2022/08/28 07:27:43;;;;;;;7.10;5.30;;;;;;;47.31;30.54;99049.94;431435;1271;142130;-56
2022/08/28 07:37:48;;;;;;;7.10;6.60;;;;;;;50.67;26.24;99049.90;429251;1272;142328;-57
2022/08/28 07:47:54;;;;;;;6.10;5.70;;;;;;;52.37;23.12;99054.02;432957;1271;146455;-57
2022/08/28 07:58:01;;;;;;;8.40;7.90;;;;;;;54.17;20.98;99052.40;430438;1271;147512;-57
2022/08/28 08:08:06;;;;;;;7.70;6.80;;;;;;;54.72;19.20;99046.48;431862;1271;145727;-56
2022/08/28 08:18:12;;;;;;;9.10;6.10;;;;;;;48.45;21.05;99037.23;432344;1271;141158;-56
2022/08/28 08:28:19;;;;;;;7.30;6.70;;;;;;;42.83;24.42;99039.45;430749;1272;142228;-57
2022/08/28 08:38:25;;;;;;;8.30;7.70;;;;;;;39.74;27.42;99051.09;431476;1271;184630;-56
2022/08/28 08:48:34;;;;;;;8.00;7.20;;;;;;;37.27;29.99;99062.55;431319;1271;141457;-54
2022/08/28 08:58:43;;;;;;;8.70;7.90;;;;;;;36.06;31.97;99077.36;431376;1271;143728;-58
2022/08/28 09:08:55;;;;;;;10.90;8.90;;;;;;;35.19;33.51;99085.45;431778;1271;147617;-56
2022/08/28 09:19:02;;;;;;;9.90;9.00;;;;;;;33.76;35.05;99084.98;430421;1271;145170;-57
2022/08/28 09:29:15;;;;;;;9.60;8.60;;;;;;;32.53;37.34;99084.52;429319;1271;143471;-57
2022/08/28 09:39:23;;;;;;;9.30;8.50;;;;;;;33.49;37.62;99084.84;431388;1271;143238;-59
2022/08/28 09:49:30;;;;;;;8.20;7.40;;;;;;;34.73;36.11;99093.29;431460;1271;141842;-59
2022/08/28 09:59:36;;;;;;;9.50;8.30;;;;;;;34.39;36.46;99094.63;430414;1271;145506;-58
2022/08/28 10:09:45;;;;;;;;;;;;;;;33.89;37.29;99093.77;431552;1271;145672;-57
2022/08/28 10:20:01;;;;;;;9.80;8.10;;;;;;;33.00;38.08;99094.42;430560;1271;166558;-59
2022/08/28 10:30:12;;;;;;;12.30;9.90;;;;;;;32.39;39.45;99098.95;430448;1271;146706;-56
2022/08/28 10:40:24;;;;;;;21.30;9.90;;;;;;;32.30;40.10;99101.60;431157;1271;141435;-58
2022/08/28 10:50:37;;;;;;;9.10;8.30;;;;;;;32.39;40.26;99097.70;431534;1271;142724;-56
2022/08/28 11:00:43;;;;;;;11.20;7.40;;;;;;;32.58;39.96;99100.20;431251;1271;143633;-56
2022/08/28 11:10:52;;;;;;;8.60;7.70;;;;;;;32.75;39.66;99095.39;432956;1271;142908;-58
2022/08/28 11:21:07;;;;;;;8.60;7.70;;;;;;;32.40;40.29;99100.80;430593;1271;147282;-58
2022/08/28 11:31:32;;;;;;;12.50;7.40;;;;;;;32.69;39.93;99094.09;431666;1271;142176;-58
2022/08/28 11:41:40;;;;;;;7.20;6.60;;;;;;;32.41;40.32;99093.16;430429;1273;145090;-57
2022/08/28 11:52:07;;;;;;;7.90;7.10;;;;;;;32.17;40.62;99089.30;431715;1271;186974;-57
2022/08/28 12:02:45;;;;;;;8.70;8.00;;;;;;;32.30;40.49;99083.69;430774;1271;142376;-60
2022/08/28 12:12:57;;;;;;;8.40;7.60;;;;;;;31.11;41.46;99093.76;431143;1271;142384;-56
2022/08/28 12:23:23;;;;;;;11.50;10.40;;;;;;;30.38;42.84;99084.81;437805;1271;143430;-57
2022/08/28 12:33:37;;;;;;;11.00;10.00;;;;;;;29.65;44.60;99074.92;430548;1272;142258;-57
2022/08/28 12:43:47;;;;;;;10.40;9.60;;;;;;;29.76;45.28;99077.71;430145;1271;145328;-57
2022/08/28 12:53:54;;;;;;;11.30;10.20;;;;;;;29.83;44.97;99074.33;432300;1271;141313;-56
2022/08/28 13:04:04;;;;;;;11.00;9.80;;;;;;;29.96;45.04;99075.52;434460;1271;148964;-57
2022/08/28 13:14:10;;;;;;;15.50;11.30;;;;;;;29.89;44.60;99072.89;430751;1271;143597;-57
2022/08/28 13:24:39;;;;;;;11.10;10.00;;;;;;;29.30;45.34;99067.42;430950;1271;142511;-57
2022/08/28 13:35:15;;;;;;;10.70;9.70;;;;;;;28.47;46.40;99080.98;431185;1271;148560;-57
2022/08/28 13:45:21;;;;;;;12.20;10.90;;;;;;;28.42;47.52;99086.38;430861;1271;142340;-57
2022/08/28 13:55:26;;;;;;;11.60;10.10;;;;;;;28.83;48.33;99073.77;431187;1271;141195;-57
2022/08/28 14:05:33;;;;;;;12.50;11.30;;;;;;;29.14;47.64;99061.86;430358;1271;142765;-60
2022/08/28 14:15:39;;;;;;;11.10;9.60;;;;;;;29.06;47.85;99057.67;430523;1271;142572;-57
2022/08/28 14:25:46;;;;;;;10.40;9.10;;;;;;;29.00;46.87;99047.55;430117;1271;147342;-56
2022/08/28 14:35:52;;;;;;;8.60;7.80;;;;;;;28.49;47.07;99036.79;430704;1271;143956;-56
2022/08/28 14:45:59;;;;;;;10.00;9.00;;;;;;;28.28;47.18;99062.60;431067;1270;143525;-56
2022/08/28 14:56:08;;;;;;;11.40;9.50;;;;;;;27.97;48.20;99086.70;430472;1271;141771;-57
2022/08/28 15:06:14;;;;;;;12.40;10.60;;;;;;;27.62;49.17;99102.94;431258;1271;148617;-58
2022/08/28 15:16:24;;;;;;;12.00;10.90;;;;;;;27.01;50.31;99098.98;431098;1271;142531;-56
2022/08/28 15:26:36;;;;;;;14.60;13.20;;;;;;;26.45;51.55;99110.67;430596;1271;142854;-58
2022/08/28 15:36:43;;;;;;;7.40;6.70;;;;;;;25.98;52.56;99132.45;431004;1272;142807;-58
2022/08/28 15:47:01;;;;;;;7.40;5.90;;;;;;;24.77;53.16;99154.53;430663;1271;145349;-57
2022/08/28 15:57:07;;;;;;;7.70;5.80;;;;;;;23.62;55.18;99167.06;430775;1271;142413;-59
2022/08/28 16:07:13;;;;;;;10.50;7.00;;;;;;;22.93;58.35;99179.21;431220;1271;142877;-57
2022/08/28 16:17:19;;;;;;;12.40;8.00;;;;;;;22.19;61.55;99172.72;430844;1271;143176;-58
2022/08/28 16:27:25;;;;;;;7.70;6.30;;;;;;;21.91;63.73;99151.04;431784;1271;193832;-57
2022/08/28 16:37:31;;;;;;;7.60;6.20;;;;;;;21.66;64.66;99155.11;431429;1271;147347;-58
2022/08/28 16:47:44;;;;;;;6.20;4.60;;;;;;;21.33;65.71;99168.13;431595;1271;146213;-57
2022/08/28 16:57:50;;;;;;;4.10;3.70;;;;;;;21.09;66.64;99174.98;431172;1271;143489;-57
2022/08/28 17:07:56;;;;;;;5.60;4.10;;;;;;;20.72;67.62;99200.08;431129;1271;148153;-59
2022/08/28 17:18:02;;;;;;;6.80;4.10;;;;;;;20.55;68.46;99216.38;431385;1271;141924;-57
2022/08/28 17:28:09;;;;;;;4.60;3.60;;;;;;;20.39;68.96;99222.23;432553;1271;146294;-56
2022/08/28 17:38:16;;;;;;;7.70;4.30;;;;;;;20.23;69.48;99221.39;431078;1270;142712;-58
2022/08/28 17:48:22;;;;;;;6.30;5.20;;;;;;;20.01;70.34;99223.34;432412;1271;142115;-57
2022/08/28 17:58:28;;;;;;;7.30;5.70;;;;;;;19.70;71.04;99219.59;431598;1271;142148;-59
2022/08/28 18:08:39;;;;;;;7.90;6.10;;;;;;;19.52;72.14;99200.00;430593;1271;143084;-59
2022/08/28 18:18:45;;;;;;;8.00;6.30;;;;;;;19.42;72.61;99193.98;431588;1271;147860;-58
2022/08/28 18:28:51;;;;;;;7.50;6.70;;;;;;;19.38;73.32;99203.00;430375;1271;142933;-58
2022/08/28 18:38:57;;;;;;;7.30;6.60;;;;;;;19.36;74.08;99198.04;429897;1271;1559049;-58
2022/08/28 18:49:03;;;;;;;9.00;6.30;;;;;;;19.34;75.05;99202.71;430444;1271;142881;-57
2022/08/28 18:59:09;;;;;;;8.60;6.50;;;;;;;19.30;75.89;99197.40;430953;1271;142735;-57
2022/08/28 19:09:15;;;;;;;7.50;6.50;;;;;;;19.30;76.41;99195.64;431056;1271;141717;-59
2022/08/28 19:19:25;;;;;;;7.20;5.90;;;;;;;19.22;76.83;99214.59;431231;1271;143444;-60
2022/08/28 19:29:31;;;;;;;8.30;6.10;;;;;;;19.09;77.33;99205.65;430918;1271;147568;-57
2022/08/28 19:39:37;;;;;;;8.60;7.70;;;;;;;18.92;78.10;99205.46;431626;1271;147906;-58
2022/08/28 19:49:43;;;;;;;7.80;7.00;;;;;;;18.85;78.62;99202.80;431977;1270;141489;-57
2022/08/28 19:59:49;;;;;;;11.20;9.60;;;;;;;18.77;79.13;99198.45;431336;1271;144181;-57
2022/08/28 20:09:55;;;;;;;12.90;10.80;;;;;;;18.73;79.68;99190.23;431508;1271;142922;-57
2022/08/28 20:20:02;;;;;;;11.10;9.70;;;;;;;18.70;80.32;99189.86;430071;1271;143743;-57
2022/08/28 20:30:10;;;;;;;11.40;10.00;;;;;;;18.72;80.75;99203.45;431585;1271;146668;-58
2022/08/28 20:40:20;;;;;;;11.40;10.20;;;;;;;18.84;81.13;99214.38;431231;1271;145035;-61
2022/08/28 20:50:26;;;;;;;11.90;10.60;;;;;;;19.05;81.03;99227.23;431436;1271;142397;-55
2022/08/28 21:00:32;;;;;;;12.90;10.90;;;;;;;19.16;80.77;99228.65;430376;1271;143240;-58
2022/08/28 21:10:39;;;;;;;12.40;10.50;;;;;;;19.25;80.77;99232.55;430568;1271;142217;-58
2022/08/28 21:20:45;;;;;;;12.10;10.30;;;;;;;19.30;81.03;99225.81;430863;1271;143205;-57
2022/08/28 21:30:52;;;;;;;13.00;11.50;;;;;;;19.37;81.49;99221.01;430335;1271;145324;-58
2022/08/28 21:41:00;;;;;;;16.20;12.80;;;;;;;19.40;82.03;99227.23;430397;1271;143116;-56
2022/08/28 21:51:09;;;;;;;11.70;10.60;;;;;;;19.42;82.29;99241.70;430868;1271;147038;-60
2022/08/28 22:01:17;;;;;;;6.70;6.10;;;;;;;19.42;82.95;99251.02;430716;1271;143398;-59
2022/08/28 22:11:25;;;;;;;7.90;7.10;;;;;;;19.47;83.48;99263.05;430343;1271;141549;-57
2022/08/28 22:31:55;;;;;;;5.90;5.40;;;;;;;19.50;84.20;99254.55;431001;1271;147589;-58
2022/08/28 22:42:00;;;;;;;7.20;6.50;;;;;;;19.43;84.15;99263.86;431794;1271;146858;-59
2022/08/28 22:52:08;;;;;;;6.30;5.80;;;;;;;19.24;84.46;99264.73;431804;1271;147091;-57
2022/08/28 23:02:16;;;;;;;8.00;7.30;;;;;;;19.21;84.24;99263.46;430870;1271;142519;-56
2022/08/28 23:12:22;;;;;;;8.50;7.70;;;;;;;19.12;84.27;99266.00;431552;1271;143955;-55
2022/08/28 23:22:27;;;;;;;6.20;5.60;;;;;;;19.01;84.42;99268.02;430950;1271;142541;-58
2022/08/28 23:32:33;;;;;;;7.70;6.00;;;;;;;18.89;84.91;99267.30;430965;1271;146687;-58
2022/08/28 23:42:40;;;;;;;5.30;4.90;;;;;;;18.81;84.96;99275.07;431294;1270;143643;-57
2022/08/28 23:52:46;;;;;;;5.50;4.70;;;;;;;18.75;85.40;99272.62;430748;1271;144917;-57
